createdAt,value
2023-03-27T00:01:30.656Z,6.30
2023-03-27T00:03:58.688Z,6.64
2023-03-27T00:06:27.274Z,5.91
2023-03-27T00:08:55.135Z,6.20
2023-03-27T00:11:25.062Z,6.45
2023-03-27T00:13:56.169Z,6.63
2023-03-27T00:16:26.738Z,6.68
2023-03-27T00:18:55.903Z,5.78
2023-03-27T00:21:24.486Z,5.81
2023-03-27T00:23:52.665Z,6.29
2023-03-27T00:26:22.172Z,6.33
2023-03-27T00:28:49.969Z,5.74
2023-03-27T00:31:18.060Z,5.58
2023-03-27T00:33:46.071Z,5.91
2023-03-27T00:36:15.447Z,5.73
2023-03-27T00:38:45.882Z,6.33
2023-03-27T00:41:14.086Z,5.88
2023-03-27T00:43:44.293Z,5.54
2023-03-27T00:46:31.990Z,6.38
2023-03-27T00:49:04.754Z,5.85
2023-03-27T00:51:34.328Z,5.68
2023-03-27T00:54:02.367Z,5.88
2023-03-27T00:56:30.857Z,6.31
2023-03-27T00:59:03.715Z,6.16
2023-03-27T01:01:32.399Z,5.40
2023-03-27T01:04:07.542Z,5.26
2023-03-27T01:06:37.203Z,5.65
2023-03-27T01:09:05.164Z,5.58
2023-03-27T01:11:59.342Z,5.47
2023-03-27T01:14:46.112Z,5.32
2023-03-27T01:17:26.204Z,4.80
2023-03-27T01:20:06.169Z,5.06
2023-03-27T01:22:49.411Z,5.43
2023-03-27T01:25:50.890Z,5.63
2023-03-27T01:28:46.669Z,5.34
2023-03-27T01:31:28.780Z,5.17
2023-03-27T01:34:15.412Z,4.86
2023-03-27T01:36:55.804Z,4.60
2023-03-27T01:39:40.224Z,4.90
2023-03-27T01:42:20.440Z,4.86
2023-03-27T01:45:02.107Z,4.49
2023-03-27T01:47:53.391Z,4.58
2023-03-27T01:50:54.435Z,5.44
2023-03-27T01:53:28.734Z,5.10
2023-03-27T01:56:08.218Z,5.73
2023-03-27T01:58:46.649Z,5.17
2023-03-27T02:01:29.802Z,5.10
2023-03-27T02:04:02.922Z,4.97
2023-03-27T02:06:37.219Z,5.28
2023-03-27T02:09:08.685Z,5.22
2023-03-27T02:11:58.414Z,5.23
2023-03-27T02:14:36.059Z,4.76
2023-03-27T02:17:13.959Z,5.84
2023-03-27T02:19:53.389Z,5.23
2023-03-27T02:22:37.602Z,5.64
2023-03-27T02:25:24.570Z,5.34
2023-03-27T02:28:04.135Z,5.52
2023-03-27T02:30:54.047Z,4.82
2023-03-27T02:33:55.670Z,4.38
2023-03-27T02:36:46.144Z,4.97
2023-03-27T02:39:37.319Z,4.57
2023-03-27T02:42:30.659Z,4.71
2023-03-27T02:45:10.428Z,4.39
2023-03-27T02:47:52.048Z,4.49
2023-03-27T02:50:56.753Z,4.19
2023-03-27T02:53:30.323Z,4.59
2023-03-27T02:56:03.825Z,4.89
2023-03-27T02:58:47.495Z,4.97
2023-03-27T03:01:32.886Z,5.17
2023-03-27T03:04:10.745Z,5.06
2023-03-27T03:07:06.501Z,5.24
2023-03-27T03:09:40.298Z,5.54
2023-03-27T03:12:09.940Z,5.11
2023-03-27T03:14:46.632Z,4.37
2023-03-27T03:17:16.595Z,4.70
2023-03-27T03:19:46.096Z,4.60
2023-03-27T03:22:14.005Z,4.15
2023-03-27T03:24:42.478Z,4.80
2023-03-27T03:27:14.461Z,4.64
2023-03-27T03:30:05.973Z,4.90
2023-03-27T03:32:40.637Z,4.81
2023-03-27T03:35:10.064Z,4.73
2023-03-27T03:37:38.875Z,4.59
2023-03-27T03:40:13.299Z,4.71
2023-03-27T03:42:47.993Z,5.00
2023-03-27T03:45:19.273Z,4.64
2023-03-27T03:47:47.736Z,4.88
2023-03-27T03:50:15.656Z,4.90
2023-03-27T03:52:44.991Z,5.02
2023-03-27T03:55:12.862Z,4.94
2023-03-27T03:57:42.008Z,5.12
2023-03-27T04:00:17.140Z,4.96
2023-03-27T04:02:45.672Z,4.67
2023-03-27T04:05:16.814Z,4.36
2023-03-27T04:07:45.808Z,4.45
2023-03-27T04:10:42.976Z,4.60
2023-03-27T04:13:20.783Z,4.05
2023-03-27T04:16:01.786Z,4.25
2023-03-27T04:18:39.554Z,3.91
2023-03-27T04:21:18.203Z,4.04
2023-03-27T04:23:51.426Z,4.01
2023-03-27T04:26:27.393Z,3.94
2023-03-27T04:29:14.026Z,4.15
2023-03-27T04:32:19.326Z,3.86
2023-03-27T04:35:13.109Z,3.96
2023-03-27T04:37:50.373Z,3.61
2023-03-27T04:40:49.420Z,3.96
2023-03-27T04:43:19.101Z,3.96
2023-03-27T04:45:48.292Z,3.63
2023-03-27T04:48:18.085Z,3.70
2023-03-27T04:50:50.800Z,3.82
2023-03-27T04:53:32.450Z,3.95
2023-03-27T04:56:01.440Z,3.65
2023-03-27T04:58:31.818Z,3.69
2023-03-27T05:01:02.524Z,4.05
2023-03-27T05:03:51.753Z,4.56
2023-03-27T05:06:33.059Z,3.90
2023-03-27T05:09:02.311Z,3.45
2023-03-27T05:11:33.713Z,3.52
2023-03-27T05:14:01.778Z,3.47
2023-03-27T05:16:35.943Z,3.57
2023-03-27T05:19:05.750Z,3.77
2023-03-27T05:21:46.746Z,3.96
2023-03-27T05:24:16.248Z,3.83
2023-03-27T05:26:45.707Z,4.29
2023-03-27T05:29:14.042Z,3.82
2023-03-27T05:31:45.316Z,3.91
2023-03-27T05:34:39.182Z,4.09
2023-03-27T05:37:11.406Z,3.88
2023-03-27T05:39:59.567Z,4.10
2023-03-27T05:42:27.321Z,4.09
2023-03-27T05:44:56.346Z,4.08
2023-03-27T05:47:24.090Z,4.00
2023-03-27T05:49:54.618Z,4.56
2023-03-27T05:52:22.447Z,3.99
2023-03-27T05:54:57.677Z,4.31
2023-03-27T05:57:26.088Z,4.01
2023-03-27T05:59:58.095Z,3.72
2023-03-27T06:02:26.425Z,3.89
2023-03-27T06:05:01.517Z,3.83
2023-03-27T06:07:36.076Z,3.94
2023-03-27T06:10:13.655Z,3.80
2023-03-27T06:13:07.133Z,3.53
2023-03-27T06:15:46.804Z,3.93
2023-03-27T06:18:37.995Z,3.56
2023-03-27T06:21:06.686Z,3.55
2023-03-27T06:23:34.595Z,3.77
2023-03-27T06:26:02.949Z,3.71
2023-03-27T06:28:31.836Z,3.69
2023-03-27T06:30:59.895Z,3.46
2023-03-27T06:33:32.337Z,3.57
2023-03-27T06:36:05.452Z,3.29
2023-03-27T06:38:38.127Z,3.81
2023-03-27T06:41:06.484Z,3.61
2023-03-27T06:44:01.063Z,3.64
2023-03-27T06:46:51.836Z,3.60
2023-03-27T06:49:28.806Z,3.64
2023-03-27T06:51:57.217Z,3.30
2023-03-27T06:54:25.076Z,3.10
2023-03-27T06:56:55.939Z,3.10
2023-03-27T06:59:24.216Z,2.92
2023-03-27T07:01:58.609Z,2.95
2023-03-27T07:04:26.450Z,3.25
2023-03-27T07:07:04.441Z,3.33
2023-03-27T07:09:38.128Z,3.32
2023-03-27T07:12:09.375Z,3.02
2023-03-27T07:14:39.240Z,3.19
2023-03-27T07:17:09.207Z,3.11
2023-03-27T07:19:55.566Z,3.06
2023-03-27T07:22:28.028Z,3.46
2023-03-27T07:24:58.229Z,3.25
2023-03-27T07:27:28.271Z,3.40
2023-03-27T07:30:01.847Z,3.31
2023-03-27T07:32:37.039Z,3.36
2023-03-27T07:35:09.301Z,3.45
2023-03-27T07:37:57.825Z,3.10
2023-03-27T07:40:40.473Z,3.15
2023-03-27T07:43:28.883Z,3.00
2023-03-27T07:45:58.107Z,3.13
2023-03-27T07:48:27.951Z,3.10
2023-03-27T07:51:10.666Z,3.35
2023-03-27T07:53:41.733Z,3.54
2023-03-27T07:56:26.705Z,3.38
2023-03-27T07:59:22.879Z,3.41
2023-03-27T08:01:51.653Z,3.35
2023-03-27T08:04:21.350Z,3.29
2023-03-27T08:07:04.046Z,3.05
2023-03-27T08:09:32.457Z,2.94
2023-03-27T08:12:00.201Z,2.92
2023-03-27T08:14:28.427Z,2.72
2023-03-27T08:17:12.458Z,2.70
2023-03-27T08:19:46.360Z,3.03
2023-03-27T08:22:14.965Z,3.30
2023-03-27T08:25:14.702Z,3.09
2023-03-27T08:27:45.137Z,2.69
2023-03-27T08:30:17.080Z,3.46
2023-03-27T08:32:45.301Z,3.19
2023-03-27T08:35:13.798Z,3.33
2023-03-27T08:37:41.808Z,3.14
2023-03-27T08:40:34.158Z,3.26
2023-03-27T08:43:29.040Z,2.86
2023-03-27T08:46:07.889Z,3.21
2023-03-27T08:48:47.596Z,2.47
2023-03-27T08:51:30.622Z,2.52
2023-03-27T08:54:09.088Z,2.36
2023-03-27T08:56:37.728Z,2.55
2023-03-27T08:59:17.642Z,2.32
2023-03-27T09:02:09.679Z,2.50
2023-03-27T09:04:52.788Z,2.39
2023-03-27T09:07:40.679Z,2.33
2023-03-27T09:10:48.223Z,2.52
2023-03-27T09:13:51.811Z,2.14
2023-03-27T09:16:31.133Z,2.25
2023-03-27T09:19:00.821Z,2.42
2023-03-27T09:21:37.264Z,2.52
2023-03-27T09:24:29.710Z,2.05
2023-03-27T09:27:26.754Z,2.23
2023-03-27T09:30:25.512Z,2.42
2023-03-27T09:33:05.792Z,2.43
2023-03-27T09:35:38.830Z,2.33
2023-03-27T09:38:27.159Z,2.77
2023-03-27T09:41:08.304Z,2.68
2023-03-27T09:43:43.234Z,2.90
2023-03-27T09:46:19.962Z,2.96
2023-03-27T09:49:17.443Z,3.14
2023-03-27T09:51:59.567Z,2.65
2023-03-27T09:54:56.398Z,2.90
2023-03-27T09:57:38.718Z,3.04
2023-03-27T10:00:29.363Z,2.59
2023-03-27T10:03:06.083Z,2.52
2023-03-27T10:05:37.296Z,2.72
2023-03-27T10:08:37.835Z,2.86
2023-03-27T10:11:21.784Z,2.73
2023-03-27T10:13:54.398Z,2.96
2023-03-27T10:16:27.922Z,2.56
2023-03-27T10:19:04.014Z,2.82
2023-03-27T10:21:44.499Z,2.90
2023-03-27T10:24:21.737Z,2.51
2023-03-27T10:27:23.609Z,2.93
2023-03-27T10:30:35.774Z,2.86
2023-03-27T10:33:36.731Z,3.03
2023-03-27T10:36:31.775Z,3.09
2023-03-27T10:39:11.806Z,2.99
2023-03-27T10:41:58.472Z,3.27
2023-03-27T10:44:28.625Z,2.69
2023-03-27T10:46:59.073Z,2.32
2023-03-27T10:49:43.906Z,1.44
2023-03-27T10:52:43.907Z,1.20
2023-03-27T10:55:28.998Z,1.35
2023-03-27T10:58:05.530Z,1.36
2023-03-27T11:00:44.465Z,1.56
2023-03-27T11:03:24.669Z,1.33
2023-03-27T11:06:02.788Z,1.37
2023-03-27T11:08:44.180Z,1.67
2023-03-27T11:11:27.204Z,1.54
2023-03-27T11:14:02.555Z,1.71
2023-03-27T11:16:48.014Z,1.81
2023-03-27T11:19:43.763Z,1.60
2023-03-27T11:22:35.575Z,1.83
2023-03-27T11:25:39.705Z,1.67
2023-03-27T11:28:34.099Z,1.96
2023-03-27T11:31:23.917Z,2.47
2023-03-27T11:34:28.921Z,2.24
2023-03-27T11:37:26.799Z,2.20
2023-03-27T11:40:19.725Z,2.13
2023-03-27T11:42:51.027Z,2.07
2023-03-27T11:45:25.660Z,2.04
2023-03-27T11:48:30.874Z,1.81
2023-03-27T11:51:51.003Z,2.14
2023-03-27T11:54:42.792Z,1.83
2023-03-27T11:57:26.014Z,1.86
2023-03-27T12:00:05.326Z,1.80
2023-03-27T12:02:59.167Z,2.06
2023-03-27T12:05:49.565Z,1.86
2023-03-27T12:08:48.223Z,1.98
2023-03-27T12:11:20.606Z,1.83
2023-03-27T12:14:34.343Z,1.79
2023-03-27T12:17:30.624Z,1.92
2023-03-27T12:20:11.023Z,3.68
2023-03-27T12:23:36.865Z,4.14
2023-03-27T12:27:22.098Z,2.51
2023-03-27T12:30:13.493Z,2.27
2023-03-27T12:33:01.761Z,1.66
2023-03-27T12:35:49.813Z,1.54
2023-03-27T12:38:30.989Z,1.97
2023-03-27T12:41:13.843Z,1.73
2023-03-27T12:44:04.541Z,1.54
2023-03-27T12:46:43.869Z,1.45
2023-03-27T12:49:13.298Z,1.59
2023-03-27T12:51:56.485Z,1.73
2023-03-27T12:55:06.549Z,1.83
2023-03-27T12:57:54.711Z,1.96
2023-03-27T13:00:59.574Z,2.23
2023-03-27T13:03:49.052Z,2.22
2023-03-27T13:06:25.801Z,2.04
2023-03-27T13:09:13.981Z,1.75
2023-03-27T13:12:32.501Z,1.64
2023-03-27T13:15:38.721Z,1.78
2023-03-27T13:18:27.890Z,1.59
2023-03-27T13:21:10.707Z,1.86
2023-03-27T13:24:08.681Z,1.81
2023-03-27T13:26:55.289Z,1.95
2023-03-27T13:29:30.479Z,1.93
2023-03-27T13:32:31.217Z,1.85
2023-03-27T13:35:21.994Z,1.57
2023-03-27T13:37:50.048Z,1.90
2023-03-27T13:40:38.923Z,1.68
2023-03-27T13:43:35.700Z,2.03
2023-03-27T13:46:19.265Z,1.85
2023-03-27T13:49:21.183Z,1.80
2023-03-27T13:52:13.244Z,1.67
2023-03-27T13:54:55.363Z,1.94
2023-03-27T13:57:50.730Z,1.78
2023-03-27T14:00:24.354Z,2.04
2023-03-27T14:03:18.843Z,1.75
2023-03-27T14:06:10.092Z,1.96
2023-03-27T14:09:00.020Z,2.21
2023-03-27T14:12:13.162Z,2.27
2023-03-27T14:14:53.187Z,1.97
2023-03-27T14:17:39.085Z,2.18
2023-03-27T14:20:16.022Z,1.38
2023-03-27T14:23:02.095Z,1.42
2023-03-27T14:25:53.803Z,1.72
2023-03-27T14:28:51.844Z,1.43
2023-03-27T14:31:35.767Z,1.41
2023-03-27T14:34:12.293Z,1.34
2023-03-27T14:36:42.558Z,1.37
2023-03-27T14:39:39.674Z,1.35
2023-03-27T14:42:17.353Z,1.43
2023-03-27T14:44:48.928Z,1.44
2023-03-27T14:47:22.749Z,1.39
2023-03-27T14:49:53.969Z,1.66
2023-03-27T14:52:36.837Z,1.72
2023-03-27T14:55:34.437Z,1.89
2023-03-27T14:58:24.789Z,1.90
2023-03-27T15:00:58.098Z,1.83
2023-03-27T15:03:35.580Z,1.84
2023-03-27T15:06:17.490Z,1.59
2023-03-27T15:08:58.890Z,1.71
2023-03-27T15:11:56.111Z,1.61
2023-03-27T15:14:30.549Z,1.84
2023-03-27T15:17:15.951Z,1.78
2023-03-27T15:20:14.616Z,1.73
2023-03-27T15:22:55.026Z,1.86
2023-03-27T15:26:08.531Z,2.29
2023-03-27T15:28:44.550Z,1.74
2023-03-27T15:31:14.573Z,1.80
2023-03-27T15:34:08.697Z,1.78
2023-03-27T15:36:39.151Z,1.68
2023-03-27T15:39:08.509Z,1.86
2023-03-27T15:41:42.814Z,1.88
2023-03-27T15:44:15.896Z,1.92
2023-03-27T15:46:54.120Z,2.10
2023-03-27T15:49:44.349Z,2.42
2023-03-27T15:52:33.804Z,3.54
2023-03-27T15:55:04.153Z,3.16
2023-03-27T15:57:32.057Z,5.25
2023-03-27T16:00:14.831Z,5.68
2023-03-27T16:02:43.657Z,3.16
2023-03-27T16:05:18.401Z,3.78
2023-03-27T16:07:49.278Z,2.13
2023-03-27T16:10:37.605Z,1.75
2023-03-27T16:13:07.560Z,1.90
2023-03-27T16:15:41.437Z,1.99
2023-03-27T16:18:22.014Z,2.01
2023-03-27T16:20:49.866Z,2.49
2023-03-27T16:23:18.017Z,2.78
2023-03-27T16:25:45.947Z,2.17
2023-03-27T16:28:17.693Z,1.87
2023-03-27T16:30:45.908Z,2.09
2023-03-27T16:33:19.225Z,1.90
2023-03-27T16:35:47.828Z,1.75
2023-03-27T16:38:16.602Z,2.07
2023-03-27T16:40:45.981Z,2.41
2023-03-27T16:43:14.979Z,2.33
2023-03-27T16:45:42.969Z,2.06
2023-03-27T16:48:13.576Z,2.37
2023-03-27T16:50:41.887Z,1.98
2023-03-27T16:53:09.549Z,1.92
2023-03-27T16:55:37.315Z,2.20
2023-03-27T16:58:05.522Z,2.09
2023-03-27T17:00:33.355Z,1.99
2023-03-27T17:03:01.506Z,1.69
2023-03-27T17:05:34.182Z,1.90
2023-03-27T17:08:05.982Z,1.96
2023-03-27T17:10:37.304Z,2.43
2023-03-27T17:13:06.002Z,3.07
2023-03-27T17:15:37.551Z,3.44
2023-03-27T17:18:06.687Z,3.43
2023-03-27T17:20:35.463Z,3.60
2023-03-27T17:23:03.137Z,4.15
2023-03-27T17:25:30.839Z,3.65
2023-03-27T17:27:58.619Z,4.36
2023-03-27T17:30:37.299Z,3.67
2023-03-27T17:33:07.519Z,4.20
2023-03-27T17:35:37.464Z,3.73
2023-03-27T17:38:05.435Z,3.64
2023-03-27T17:40:33.613Z,3.03
2023-03-27T17:43:01.648Z,3.06
2023-03-27T17:45:29.420Z,3.18
2023-03-27T17:47:57.464Z,3.18
2023-03-27T17:50:25.447Z,3.04
2023-03-27T17:52:53.218Z,2.80
2023-03-27T17:55:21.094Z,2.84
2023-03-27T17:57:55.660Z,2.69
2023-03-27T18:00:30.591Z,2.83
2023-03-27T18:02:58.680Z,2.65
2023-03-27T18:05:26.809Z,2.79
2023-03-27T18:07:54.763Z,2.70
2023-03-27T18:10:22.791Z,2.78
2023-03-27T18:12:54.457Z,2.90
2023-03-27T18:15:23.978Z,3.03
2023-03-27T18:17:52.611Z,3.18
2023-03-27T18:20:23.046Z,3.06
2023-03-27T18:22:51.250Z,2.85
2023-03-27T18:25:19.107Z,2.96
2023-03-27T18:27:46.944Z,3.08
2023-03-27T18:30:16.808Z,3.12
2023-03-27T18:32:46.531Z,2.96
2023-03-27T18:35:18.052Z,3.04
2023-03-27T18:37:47.404Z,3.12
2023-03-27T18:40:18.580Z,3.03
2023-03-27T18:42:46.861Z,3.17
2023-03-27T18:45:16.909Z,3.45
2023-03-27T18:47:45.903Z,3.02
2023-03-27T18:50:15.053Z,2.89
2023-03-27T18:52:43.084Z,2.85
2023-03-27T18:55:13.236Z,2.92
2023-03-27T18:57:41.129Z,2.64
2023-03-27T19:00:10.004Z,2.83
2023-03-27T19:02:37.909Z,2.97
2023-03-27T19:05:06.194Z,3.41
2023-03-27T19:07:33.968Z,3.01
2023-03-27T19:10:01.909Z,3.04
2023-03-27T19:12:37.021Z,2.87
2023-03-27T19:15:40.978Z,2.51
2023-03-27T19:18:30.119Z,3.00
2023-03-27T19:21:33.404Z,2.54
2023-03-27T19:24:05.755Z,2.74
2023-03-27T19:26:40.370Z,2.37
2023-03-27T19:29:08.985Z,2.50
2023-03-27T19:31:37.242Z,3.10
2023-03-27T19:34:05.598Z,2.59
2023-03-27T19:36:34.319Z,2.24
2023-03-27T19:39:02.187Z,2.46
2023-03-27T19:41:30.139Z,2.72
2023-03-27T19:44:00.240Z,2.29
2023-03-27T19:46:29.290Z,2.60
2023-03-27T19:48:58.847Z,2.64
2023-03-27T19:51:43.613Z,2.97
2023-03-27T19:54:14.120Z,2.80
2023-03-27T19:56:42.192Z,2.93
2023-03-27T19:59:13.195Z,3.08
2023-03-27T20:01:48.608Z,2.98
2023-03-27T20:04:16.493Z,3.13
2023-03-27T20:06:47.125Z,2.83
2023-03-27T20:09:15.658Z,3.07
2023-03-27T20:11:43.884Z,2.98
2023-03-27T20:14:12.509Z,2.98
2023-03-27T20:16:40.586Z,2.77
2023-03-27T20:19:09.467Z,2.98
2023-03-27T20:21:39.950Z,3.12
2023-03-27T20:24:13.901Z,2.94
2023-03-27T20:26:48.375Z,2.77
2023-03-27T20:29:24.322Z,2.85
2023-03-27T20:31:52.373Z,3.00
2023-03-27T20:34:22.780Z,3.13
2023-03-27T20:36:53.413Z,3.50
2023-03-27T20:39:47.356Z,3.16
2023-03-27T20:42:17.618Z,3.50
2023-03-27T20:44:46.994Z,3.38
2023-03-27T20:47:19.288Z,4.24
2023-03-27T20:49:49.014Z,3.68
2023-03-27T20:52:19.388Z,3.80
2023-03-27T20:54:47.961Z,3.36
2023-03-27T20:57:18.234Z,3.69
2023-03-27T20:59:48.363Z,3.93
2023-03-27T21:02:18.810Z,3.67
2023-03-27T21:04:47.630Z,3.84
2023-03-27T21:07:16.895Z,3.75
2023-03-27T21:09:47.822Z,3.89
2023-03-27T21:12:16.011Z,3.70
2023-03-27T21:14:43.878Z,4.00
2023-03-27T21:17:14.087Z,3.93
2023-03-27T21:19:43.617Z,3.66
2023-03-27T21:22:12.004Z,3.77
2023-03-27T21:24:41.372Z,3.76
2023-03-27T21:27:09.108Z,3.98
2023-03-27T21:29:37.082Z,3.95
2023-03-27T21:32:06.425Z,3.90
2023-03-27T21:34:34.557Z,4.05
2023-03-27T21:37:02.977Z,4.14
2023-03-27T21:39:34.019Z,4.64
2023-03-27T21:42:01.948Z,4.47
2023-03-27T21:44:29.632Z,4.28
2023-03-27T21:46:57.421Z,3.60
2023-03-27T21:49:25.872Z,3.49
2023-03-27T21:51:53.668Z,3.49
2023-03-27T21:54:21.542Z,3.15
2023-03-27T21:56:49.352Z,3.31
2023-03-27T21:59:17.187Z,3.42
2023-03-27T22:01:45.145Z,3.59
2023-03-27T22:04:12.922Z,3.73
2023-03-27T22:06:40.717Z,3.85
2023-03-27T22:09:08.400Z,4.20
2023-03-27T22:11:36.027Z,4.16
2023-03-27T22:14:03.873Z,4.04
2023-03-27T22:16:31.919Z,3.85
2023-03-27T22:18:59.578Z,3.74
2023-03-27T22:21:29.846Z,4.00
2023-03-27T22:23:59.178Z,3.93
2023-03-27T22:26:34.208Z,4.25
2023-03-27T22:29:02.145Z,4.31
2023-03-27T22:31:30.217Z,4.20
2023-03-27T22:33:58.162Z,4.21
2023-03-27T22:36:25.871Z,4.09
2023-03-27T22:38:53.774Z,4.22
2023-03-27T22:41:21.610Z,4.20
2023-03-27T22:43:49.844Z,4.01
2023-03-27T22:46:21.263Z,4.23
2023-03-27T22:48:56.281Z,3.93
2023-03-27T22:51:25.475Z,3.94
2023-03-27T22:53:53.327Z,3.83
2023-03-27T22:56:21.408Z,3.86
2023-03-27T22:58:49.577Z,4.07
2023-03-27T23:01:17.359Z,3.98
2023-03-27T23:03:45.445Z,4.03
2023-03-27T23:06:20.933Z,3.65
2023-03-27T23:08:50.283Z,4.09
2023-03-27T23:11:18.861Z,3.66
2023-03-27T23:13:47.062Z,4.04
2023-03-27T23:16:15.253Z,3.96
2023-03-27T23:18:43.170Z,4.19
2023-03-27T23:21:13.129Z,3.69
2023-03-27T23:23:41.565Z,4.15
2023-03-27T23:26:10.477Z,4.41
2023-03-27T23:28:41.048Z,4.19
2023-03-27T23:31:13.414Z,4.32
2023-03-27T23:33:43.737Z,4.52
2023-03-27T23:36:14.963Z,4.43
2023-03-27T23:38:43.206Z,3.77
2023-03-27T23:41:13.128Z,4.12
2023-03-27T23:43:40.991Z,4.24
2023-03-27T23:46:10.487Z,4.16
2023-03-27T23:48:40.760Z,4.03
2023-03-27T23:51:09.912Z,4.13
2023-03-27T23:53:37.843Z,4.07
2023-03-27T23:56:05.949Z,3.99
2023-03-27T23:58:34.015Z,3.96
